Bodega Marine Reserve, California Weather observations

Data are for 10 minute period ending at time listed.
 Day   Time   Solar   Ave.   Ave.  Ave.  Vector  Max.   Baro.   Total    
  of    of     Rad.   Air    Rel.  Wind   Wind   Wind  Press.  Precip.   
Year   Day            Temp.  Hum.  Speed  Dir.   Gust                    
2014   (PST)  Kw/m2    F      %     mph   deg.    mph    mb.     in.     
-------------------------------------------------------------------------
 272    9:10   0.12   58.4    96    4.2   304     6.4   1013.9    0.00 
 272    9:20   0.13   58.4    95    4.0   279     5.5   1013.9    0.00 
 272    9:30   0.12   58.5    95    5.0   284     7.2   1014.2    0.00 
 272    9:40   0.12   58.5    94    4.7   291     6.8   1014.2    0.00 
 272    9:50   0.13   58.6    94    4.9   292     6.7   1014.2    0.00 
 272   10:00   0.19   58.9    93    5.8   296     8.4   1014.2    0.00 
 272   10:10   0.20   59.5    90    5.2   303     8.6   1014.2    0.00 
 272   10:20   0.21   59.7    88    4.2   286     6.9   1014.2    0.00 
 272   10:30   0.21   60.1    88    3.4   293     5.8   1014.2    0.00 
 272   10:40   0.24   60.3    86    3.4   280     6.6   1014.2    0.00 
 272   10:50   0.23   60.4    86    3.2   271     6.9   1014.2    0.00 
 272   11:00   0.24   60.5    85    5.1   275     8.0   1014.2    0.00 
 272   11:10   0.32   60.9    83    5.1   276     8.2   1014.2    0.00 
 272   11:20   0.32   60.9    82    3.4   288     5.6   1014.2    0.00 
 272   11:30   0.34   61.4    81    3.2   285     6.3   1014.2    0.00 
 272   11:40   0.36   61.6    81    3.2   280     6.8   1014.2    0.00 
 272   11:50   0.41   61.6    80    3.8   257     7.5   1014.2    0.00 
 272   12:00   0.45   62.2    79    3.7   193     7.2   1014.2    0.00 
 272   12:10   0.43   62.3    78    4.7   252    10.8   1014.2    0.00 
 272   12:20   0.36   62.2    79    6.5   276    10.0   1014.2    0.00 
 272   12:30   0.44   62.0    80    5.0   277     7.5   1013.9    0.00 
 272   12:40   0.66   62.7    79    5.3   279     8.7   1013.9    0.00 
 272   12:50   0.72   63.7    76    5.8   273     8.9   1013.9    0.00 
 272   13:00   0.63   64.0    76    7.0   262    11.1   1013.9    0.00 
 272   13:10   0.49   63.4    77    9.2   277    12.4   1013.9    0.00 
 272   13:20   0.56   63.7    77   10.3   285    18.5   1013.9    0.00 
 272   13:30   0.62   64.8    74   11.6   298    16.5   1013.5    0.00 
 272   13:40   0.51   64.6    75   11.5   287    16.6   1013.5    0.00 
 272   13:50   0.40   64.0    77   11.9   286    17.6   1013.5    0.00 
 272   14:00   0.34   63.7    77   12.9   294    18.6   1013.5    0.00 
 272   14:10   0.47   64.4    76   14.7   296    22.4   1013.2    0.00 
 272   14:20   0.43   64.1    77   17.7   298    24.4   1013.2    0.00 
 272   14:30   0.54   64.1    77   17.8   294    23.3   1012.9    0.00 
 272   14:40   0.53   64.6    76   15.5   292    21.5   1012.9    0.00 
 272   14:50   0.51   65.0    75   13.6   289    18.9   1012.9    0.00 
 272   15:00   0.48   64.5    76   15.4   289    19.1   1012.9    0.00 
 272   15:10   0.45   63.8    78   15.5   293    20.1   1012.9    0.00 
 272   15:20   0.37   63.4    79   15.4   292    20.1   1012.5    0.00 
 272   15:30   0.39   64.1    78   13.9   291    19.5   1012.5    0.00 
 272   15:40   0.37   64.2    77   14.9   292    21.0   1012.5    0.00 
 272   15:50   0.35   63.6    78   14.0   295    21.0   1012.2    0.00 
 272   16:00   0.32   63.8    77   14.7   298    20.7   1012.2    0.00 
 272   16:10   0.28   63.4    78   15.3   303    21.5   1012.2    0.00 
 272   16:20   0.27   62.8    79   15.9   303    21.9   1012.2    0.00 
 272   16:30   0.21   62.3    81   16.8   304    23.9   1012.2    0.00 
 272   16:40   0.07   61.9    82   17.9   304    22.9   1012.2    0.00 
 272   16:50   0.13   61.4    83   18.5   305    24.6   1011.9    0.00 
 272   17:00   0.09   61.2    84   17.3   305    22.4   1011.9    0.00 
 272   17:10   0.11   61.0    85   18.7   308    27.2   1011.9    0.00 
 272   17:20   0.08   60.6    87   18.8   308    26.2   1011.5    0.00 
 272   17:30   0.04   60.2    88   18.4   312    24.7   1011.5    0.00 
 272   17:40   0.03   59.9    88   19.6   310    26.7   1011.2    0.00 
 272   17:50   0.01   59.6    89   18.5   309    26.3   1011.2    0.00 
 272   18:00   0.00   59.4    90   19.6   310    27.2   1011.2    0.00 
 272   18:10   0.00   59.3    90   20.1   310    27.7   1011.2    0.00 
 272   18:20   0.00   59.2    90   19.5   310    27.0   1011.2    0.00 
 272   18:30   0.00   59.1    90   17.9   313    23.9   1011.2    0.00 
 272   18:40   0.00   59.1    90   18.0   314    23.9   1011.2    0.00 
 272   18:50   0.00   59.1    90   17.6   314    23.4   1011.2    0.00 
 272   19:00   0.00   59.0    90   17.2   315    23.1   1011.5    0.00 
 272   19:10   0.00   59.1    90   16.9   315    23.2   1011.5    0.00 
 272   19:20   0.00   59.0    90   17.9   314    23.3   1011.5    0.00 
 272   19:30   0.00   58.8    90   15.8   317    20.8   1011.5    0.00 
 272   19:40   0.00   58.6    91   16.4   313    22.9   1011.5    0.00 
 272   19:50   0.00   58.6    91   15.6   316    20.2   1011.9    0.00 
 272   20:00   0.00   58.5    91   15.5   316    20.9   1011.9    0.00 
 272   20:10   0.00   58.4    91   15.2   316    20.8   1011.9    0.00 
 272   20:20   0.00   58.4    91   15.5   313    19.4   1011.9    0.00 
 272   20:30   0.00   58.3    91   15.4   314    21.0   1011.9    0.00 
 272   20:40   0.00   58.3    91   14.4   317    17.8   1011.9    0.00 
 272   20:50   0.00   58.3    91   14.5   318    18.8   1012.2    0.00 
 272   21:00   0.00   58.2    92   14.4   316    18.9   1012.2    0.00 
 272   21:10   0.00   58.2    91   13.0   320    17.3   1012.2    0.00 
 272   21:20   0.00   58.1    91   12.7   320    17.3   1011.9    0.00 
 272   21:30   0.00   58.0    91   13.1   315    18.6   1011.9    0.00 
 272   21:40   0.00   58.1    90   13.0   317    16.6   1011.9    0.00 
 272   21:50   0.00   58.3    90   13.5   320    17.8   1012.2    0.00 
 272   22:00   0.00   58.2    91   11.9   320    15.5   1012.2    0.00 
 272   22:10   0.00   58.1    92   11.8   318    15.7   1012.2    0.00 
 272   22:20   0.00   58.1    92   12.1   321    16.2   1012.2    0.00 
 272   22:30   0.00   58.0    93   11.6   320    15.2   1012.2    0.00 
 272   22:40   0.00   58.0    93   12.4   317    17.4   1012.2    0.00 
 272   22:50   0.00   58.0    93   12.2   316    16.2   1012.2    0.00 
 272   23:00   0.00   57.9    94   11.2   318    16.5   1012.2    0.00 
 272   23:10   0.00   58.0    94    9.8   326    14.0   1012.2    0.00 
 272   23:20   0.00   58.1    94   10.3   328    13.7   1012.2    0.00 
 272   23:30   0.00   58.2    94   11.0   328    16.5   1011.9    0.00 
 272   23:40   0.00   58.2    94   10.1   328    14.8   1011.9    0.00 
 272   23:50   0.00   58.1    94    8.9   330    13.0   1011.5    0.00 
 273    0:00   0.00   57.9    94    9.3   328    13.6   1011.5    0.00 
 273    0:10   0.00   57.8    94    9.9   323    13.6   1011.5    0.00 
 273    0:20   0.00   57.7    94    9.6   318    15.1   1011.5    0.00 
 273    0:30   0.00   57.5    94    8.7   312    12.8   1011.5    0.00 
 273    0:40   0.00   57.6    94    8.2   322    10.8   1011.5    0.00 
 273    0:50   0.00   57.6    94    8.7   320    11.1   1011.5    0.00 
 273    1:00   0.00   57.6    94    9.2   316    13.2   1011.5    0.00 
 273    1:10   0.00   57.6    94   11.3   315    17.2   1011.5    0.00 
 273    1:20   0.00   57.6    94   10.3   318    14.1   1011.5    0.00 
 273    1:30   0.00   57.5    94   10.4   315    14.5   1011.5    0.00 
 273    1:40   0.00   57.7    94   11.6   315    14.4   1011.5    0.00 
 273    1:50   0.01   58.0    94   11.3   322    16.3   1011.9    0.00 
 273    2:00   0.00   58.0    94   11.4   323    16.3   1011.5    0.00 
 273    2:10   0.01   58.0    95   12.9   318    17.5   1011.5    0.00 
 273    2:20   0.01   58.0    95   13.9   316    17.5   1011.5    0.00 
 273    2:30   0.01   58.0    95   14.7   314    21.2   1011.5    0.00 
 273    2:40   0.01   57.8    95   15.7   314    22.1   1011.5    0.00 
 273    2:50   0.01   57.6    96   14.5   316    18.8   1011.5    0.00 
 273    3:00   0.01   57.3    96   15.8   317    20.9   1011.5    0.00 
 273    3:10   0.01   57.2    97   14.3   318    19.5   1011.5    0.00 
 273    3:20   0.01   57.3    97   14.6   318    19.3   1011.5    0.00 
 273    3:30   0.01   57.4    97   14.2   320    19.6   1011.5    0.00 
 273    3:40   0.01   57.6    97   14.7   319    21.6   1011.5    0.00 
 273    3:50   0.01   57.7    97   15.5   318    21.7   1011.5    0.00 
 273    4:00   0.01   57.7    97   14.0   315    18.6   1011.5    0.00 
 273    4:10   0.01   57.8    97   12.0   314    16.4   1011.5    0.00 
 273    4:20   0.01   57.8    97   12.8   304    18.2   1011.2    0.00 
 273    4:30   0.01   57.7    97   13.8   301    18.9   1011.2    0.00 
 273    4:40   0.01   57.6    97   13.8   295    17.2   1011.2    0.00 
 273    4:50   0.01   57.5    97   14.0   299    18.2   1011.2    0.00 
 273    5:00   0.01   57.5    97   12.1   307    17.5   1011.2    0.00 
 273    5:10   0.01   57.2    96   13.2   304    18.3   1011.2    0.00 
 273    5:20   0.01   57.1    97   13.0   300    18.6   1010.8    0.00 
 273    5:30   0.01   57.0    97   13.4   306    17.3   1010.8    0.00 
 273    5:40   0.01   56.8    97   12.1   306    16.3   1010.8    0.00 
 273    5:50   0.01   56.8    97   12.6   302    15.8   1010.8    0.00 
 273    6:00   0.01   56.8    97   14.4   303    17.8   1010.8    0.00 
 273    6:10   0.01   56.9    97   13.8   303    18.3   1010.8    0.00 
 273    6:20   0.01   56.8    97   15.2   303    19.8   1010.8    0.00 
 273    6:30   0.02   56.6    97   15.4   303    19.9   1010.5    0.00 
 273    6:40   0.03   56.5    97   13.5   312    19.2   1010.8    0.00 
 273    6:50   0.04   56.5    97    9.4   326    12.7   1011.2    0.00 
 273    7:00   0.09   56.5    97    6.5   336    10.5   1011.2    0.00 
 273    7:10   0.14   57.1    97    6.1   319     9.9   1011.2    0.00 
 273    7:20   0.16   57.4    96    4.2   303     6.0   1011.2    0.00 
 273    7:30   0.19   58.2    96    2.5    17     4.5   1011.2    0.00 
 273    7:40   0.22   58.7    95    3.4   114     5.5   1011.5    0.00 
 273    7:50   0.25   58.9    94    2.4   132     4.4   1011.5    0.00 
 273    8:00   0.28   59.3    91    3.8   120     6.8   1011.5    0.00 
 273    8:10   0.30   59.0    90    4.5   133     6.7   1011.9    0.00 
 273    8:20   0.33   59.1    90    3.8   122     5.3   1011.9    0.00 
 273    8:30   0.36   59.9    88    3.2   135     4.5   1011.9    0.00 
 273    8:40   0.39   60.5    85    3.9   135     5.3   1011.9    0.00 
 273    8:50   0.42   60.7    84    4.2   137     5.1   1011.9    0.00 
 273    9:00   0.44   60.8    84    3.3   137     4.9   1011.9    0.00 

Return to Bodega Marine Reserve graphs page.


Western Regional Climate Center,wrcc@dri.edu